sensor_id;sensor_type;location;lat;lon;timestamp;P1;durP1;ratioP1;P2;durP2;ratioP2
36443;SDS011;24692;45.642;13.806;2024-03-06T00:00:06;14.63;;;7.73;;
36443;SDS011;24692;45.642;13.806;2024-03-06T00:02:34;14.33;;;8.10;;
36443;SDS011;24692;45.642;13.806;2024-03-06T00:05:02;11.10;;;7.50;;
36443;SDS011;24692;45.642;13.806;2024-03-06T00:07:29;14.53;;;8.07;;
36443;SDS011;24692;45.642;13.806;2024-03-06T00:09:55;13.00;;;8.47;;
36443;SDS011;24692;45.642;13.806;2024-03-06T00:12:20;12.73;;;8.23;;
36443;SDS011;24692;45.642;13.806;2024-03-06T00:14:46;12.23;;;7.67;;
36443;SDS011;24692;45.642;13.806;2024-03-06T00:17:13;16.27;;;7.90;;
36443;SDS011;24692;45.642;13.806;2024-03-06T00:19:38;15.97;;;8.23;;
36443;SDS011;24692;45.642;13.806;2024-03-06T00:22:04;14.20;;;8.10;;
36443;SDS011;24692;45.642;13.806;2024-03-06T00:24:30;12.67;;;7.70;;
36443;SDS011;24692;45.642;13.806;2024-03-06T00:26:57;13.50;;;7.20;;
36443;SDS011;24692;45.642;13.806;2024-03-06T00:29:23;14.97;;;7.10;;
36443;SDS011;24692;45.642;13.806;2024-03-06T00:31:49;16.30;;;8.07;;
36443;SDS011;24692;45.642;13.806;2024-03-06T00:34:14;11.80;;;7.53;;
36443;SDS011;24692;45.642;13.806;2024-03-06T00:36:40;15.47;;;7.20;;
36443;SDS011;24692;45.642;13.806;2024-03-06T00:39:07;13.60;;;7.43;;
36443;SDS011;24692;45.642;13.806;2024-03-06T00:41:33;12.87;;;7.83;;
36443;SDS011;24692;45.642;13.806;2024-03-06T00:43:59;13.10;;;7.30;;
36443;SDS011;24692;45.642;13.806;2024-03-06T00:46:25;11.57;;;7.70;;
36443;SDS011;24692;45.642;13.806;2024-03-06T00:48:51;14.03;;;7.37;;
36443;SDS011;24692;45.642;13.806;2024-03-06T00:51:16;15.47;;;7.67;;
36443;SDS011;24692;45.642;13.806;2024-03-06T00:53:42;12.07;;;7.27;;
36443;SDS011;24692;45.642;13.806;2024-03-06T00:56:08;14.97;;;7.37;;
36443;SDS011;24692;45.642;13.806;2024-03-06T00:58:34;16.20;;;7.30;;
36443;SDS011;24692;45.642;13.806;2024-03-06T01:01:00;11.23;;;7.03;;
36443;SDS011;24692;45.642;13.806;2024-03-06T01:03:25;13.13;;;7.10;;
36443;SDS011;24692;45.642;13.806;2024-03-06T01:05:51;14.00;;;6.90;;
36443;SDS011;24692;45.642;13.806;2024-03-06T01:08:21;13.93;;;7.30;;
36443;SDS011;24692;45.642;13.806;2024-03-06T01:10:49;12.10;;;7.30;;
36443;SDS011;24692;45.642;13.806;2024-03-06T01:13:16;14.93;;;8.23;;
36443;SDS011;24692;45.642;13.806;2024-03-06T01:15:41;14.53;;;7.77;;
36443;SDS011;24692;45.642;13.806;2024-03-06T01:18:07;12.73;;;7.90;;
36443;SDS011;24692;45.642;13.806;2024-03-06T01:20:34;12.40;;;7.87;;
36443;SDS011;24692;45.642;13.806;2024-03-06T01:22:59;12.17;;;8.10;;
36443;SDS011;24692;45.642;13.806;2024-03-06T01:25:25;15.07;;;8.80;;
36443;SDS011;24692;45.642;13.806;2024-03-06T01:27:51;20.60;;;8.90;;
36443;SDS011;24692;45.642;13.806;2024-03-06T01:30:16;15.67;;;8.60;;
36443;SDS011;24692;45.642;13.806;2024-03-06T01:32:42;16.27;;;8.30;;
36443;SDS011;24692;45.642;13.806;2024-03-06T01:35:07;14.53;;;8.50;;
36443;SDS011;24692;45.642;13.806;2024-03-06T01:37:33;16.63;;;9.17;;
36443;SDS011;24692;45.642;13.806;2024-03-06T01:39:59;12.77;;;8.90;;
36443;SDS011;24692;45.642;13.806;2024-03-06T01:42:25;16.23;;;9.03;;
36443;SDS011;24692;45.642;13.806;2024-03-06T01:44:50;19.57;;;9.60;;
36443;SDS011;24692;45.642;13.806;2024-03-06T01:47:16;18.33;;;9.37;;
36443;SDS011;24692;45.642;13.806;2024-03-06T01:49:42;18.50;;;9.77;;
36443;SDS011;24692;45.642;13.806;2024-03-06T01:52:09;17.43;;;9.37;;
36443;SDS011;24692;45.642;13.806;2024-03-06T01:54:38;19.17;;;9.60;;
36443;SDS011;24692;45.642;13.806;2024-03-06T01:57:04;14.93;;;9.00;;
36443;SDS011;24692;45.642;13.806;2024-03-06T01:59:32;15.30;;;9.63;;
36443;SDS011;24692;45.642;13.806;2024-03-06T02:01:59;17.83;;;9.63;;
36443;SDS011;24692;45.642;13.806;2024-03-06T02:04:28;15.17;;;9.50;;
36443;SDS011;24692;45.642;13.806;2024-03-06T02:06:55;14.53;;;8.90;;
36443;SDS011;24692;45.642;13.806;2024-03-06T02:09:22;14.30;;;9.50;;
36443;SDS011;24692;45.642;13.806;2024-03-06T02:11:48;20.40;;;9.83;;
36443;SDS011;24692;45.642;13.806;2024-03-06T02:14:15;15.87;;;9.37;;
36443;SDS011;24692;45.642;13.806;2024-03-06T02:16:41;14.77;;;9.63;;
36443;SDS011;24692;45.642;13.806;2024-03-06T02:19:07;16.10;;;9.30;;
36443;SDS011;24692;45.642;13.806;2024-03-06T02:21:33;16.37;;;9.83;;
36443;SDS011;24692;45.642;13.806;2024-03-06T02:23:59;14.10;;;9.43;;
36443;SDS011;24692;45.642;13.806;2024-03-06T02:26:24;17.17;;;10.67;;
36443;SDS011;24692;45.642;13.806;2024-03-06T02:28:51;16.57;;;9.47;;
36443;SDS011;24692;45.642;13.806;2024-03-06T02:31:19;14.77;;;9.53;;
36443;SDS011;24692;45.642;13.806;2024-03-06T02:33:46;17.27;;;9.10;;
36443;SDS011;24692;45.642;13.806;2024-03-06T02:36:13;16.27;;;9.13;;
36443;SDS011;24692;45.642;13.806;2024-03-06T02:38:39;13.70;;;9.20;;
36443;SDS011;24692;45.642;13.806;2024-03-06T02:41:05;17.07;;;9.47;;
36443;SDS011;24692;45.642;13.806;2024-03-06T02:43:32;15.07;;;8.87;;
36443;SDS011;24692;45.642;13.806;2024-03-06T02:45:58;12.60;;;8.70;;
36443;SDS011;24692;45.642;13.806;2024-03-06T02:48:24;15.40;;;9.40;;
36443;SDS011;24692;45.642;13.806;2024-03-06T02:50:50;13.87;;;9.30;;
36443;SDS011;24692;45.642;13.806;2024-03-06T02:53:16;13.83;;;9.20;;
36443;SDS011;24692;45.642;13.806;2024-03-06T02:55:42;17.47;;;9.50;;
36443;SDS011;24692;45.642;13.806;2024-03-06T02:58:07;13.27;;;8.90;;
36443;SDS011;24692;45.642;13.806;2024-03-06T03:00:33;15.27;;;9.20;;
36443;SDS011;24692;45.642;13.806;2024-03-06T03:02:58;19.23;;;9.33;;
36443;SDS011;24692;45.642;13.806;2024-03-06T03:05:24;17.60;;;8.80;;
36443;SDS011;24692;45.642;13.806;2024-03-06T03:07:50;16.27;;;8.90;;
36443;SDS011;24692;45.642;13.806;2024-03-06T03:10:16;17.43;;;9.20;;
36443;SDS011;24692;45.642;13.806;2024-03-06T03:12:42;20.63;;;9.80;;
36443;SDS011;24692;45.642;13.806;2024-03-06T03:15:08;18.10;;;9.27;;
36443;SDS011;24692;45.642;13.806;2024-03-06T03:17:34;14.70;;;8.50;;
36443;SDS011;24692;45.642;13.806;2024-03-06T03:20:00;14.53;;;8.87;;
36443;SDS011;24692;45.642;13.806;2024-03-06T03:22:35;14.30;;;8.23;;
36443;SDS011;24692;45.642;13.806;2024-03-06T03:25:01;17.27;;;8.67;;
36443;SDS011;24692;45.642;13.806;2024-03-06T03:27:27;15.93;;;8.13;;
36443;SDS011;24692;45.642;13.806;2024-03-06T03:29:53;14.77;;;7.70;;
36443;SDS011;24692;45.642;13.806;2024-03-06T03:32:19;18.17;;;8.00;;
36443;SDS011;24692;45.642;13.806;2024-03-06T03:34:44;17.20;;;8.30;;
36443;SDS011;24692;45.642;13.806;2024-03-06T03:37:10;17.50;;;8.40;;
36443;SDS011;24692;45.642;13.806;2024-03-06T03:39:37;14.57;;;8.80;;
36443;SDS011;24692;45.642;13.806;2024-03-06T03:42:03;18.57;;;8.40;;
36443;SDS011;24692;45.642;13.806;2024-03-06T03:44:29;20.33;;;8.93;;
36443;SDS011;24692;45.642;13.806;2024-03-06T03:46:54;17.20;;;8.47;;
36443;SDS011;24692;45.642;13.806;2024-03-06T03:49:20;15.77;;;8.57;;
36443;SDS011;24692;45.642;13.806;2024-03-06T03:51:45;12.13;;;7.73;;
36443;SDS011;24692;45.642;13.806;2024-03-06T03:54:11;14.83;;;8.17;;
36443;SDS011;24692;45.642;13.806;2024-03-06T03:56:37;17.37;;;9.07;;
36443;SDS011;24692;45.642;13.806;2024-03-06T03:59:03;16.20;;;8.00;;
36443;SDS011;24692;45.642;13.806;2024-03-06T04:01:28;18.03;;;8.63;;
36443;SDS011;24692;45.642;13.806;2024-03-06T04:03:54;15.87;;;8.37;;
36443;SDS011;24692;45.642;13.806;2024-03-06T04:06:20;16.47;;;9.03;;
36443;SDS011;24692;45.642;13.806;2024-03-06T04:08:45;15.10;;;8.90;;
36443;SDS011;24692;45.642;13.806;2024-03-06T04:11:11;14.73;;;8.83;;
36443;SDS011;24692;45.642;13.806;2024-03-06T04:13:37;18.13;;;9.27;;
36443;SDS011;24692;45.642;13.806;2024-03-06T04:16:03;19.90;;;9.60;;
36443;SDS011;24692;45.642;13.806;2024-03-06T04:18:30;13.40;;;8.83;;
36443;SDS011;24692;45.642;13.806;2024-03-06T04:21:05;16.30;;;9.50;;
36443;SDS011;24692;45.642;13.806;2024-03-06T04:23:31;16.37;;;8.90;;
36443;SDS011;24692;45.642;13.806;2024-03-06T04:25:58;13.33;;;8.93;;
36443;SDS011;24692;45.642;13.806;2024-03-06T04:28:25;19.17;;;9.97;;
36443;SDS011;24692;45.642;13.806;2024-03-06T04:30:51;21.27;;;10.43;;
36443;SDS011;24692;45.642;13.806;2024-03-06T04:33:17;21.80;;;11.87;;
36443;SDS011;24692;45.642;13.806;2024-03-06T04:35:43;21.23;;;11.57;;
36443;SDS011;24692;45.642;13.806;2024-03-06T04:38:08;17.53;;;11.87;;
36443;SDS011;24692;45.642;13.806;2024-03-06T04:40:34;19.33;;;12.13;;
36443;SDS011;24692;45.642;13.806;2024-03-06T04:43:02;21.07;;;11.83;;
36443;SDS011;24692;45.642;13.806;2024-03-06T04:45:28;19.63;;;11.80;;
36443;SDS011;24692;45.642;13.806;2024-03-06T04:47:54;20.40;;;12.27;;
36443;SDS011;24692;45.642;13.806;2024-03-06T04:50:20;18.97;;;12.47;;
36443;SDS011;24692;45.642;13.806;2024-03-06T04:52:46;21.93;;;12.17;;
36443;SDS011;24692;45.642;13.806;2024-03-06T04:55:12;22.87;;;11.47;;
36443;SDS011;24692;45.642;13.806;2024-03-06T04:57:41;22.80;;;12.20;;
36443;SDS011;24692;45.642;13.806;2024-03-06T05:00:08;22.20;;;11.47;;
36443;SDS011;24692;45.642;13.806;2024-03-06T05:02:35;19.93;;;11.10;;
36443;SDS011;24692;45.642;13.806;2024-03-06T05:05:02;20.33;;;10.10;;
36443;SDS011;24692;45.642;13.806;2024-03-06T05:07:29;22.00;;;11.00;;
36443;SDS011;24692;45.642;13.806;2024-03-06T05:09:58;18.87;;;10.03;;
36443;SDS011;24692;45.642;13.806;2024-03-06T05:12:24;15.33;;;7.80;;
36443;SDS011;24692;45.642;13.806;2024-03-06T05:14:50;16.67;;;7.37;;
36443;SDS011;24692;45.642;13.806;2024-03-06T05:17:16;12.23;;;7.47;;
36443;SDS011;24692;45.642;13.806;2024-03-06T05:19:42;10.23;;;5.27;;
36443;SDS011;24692;45.642;13.806;2024-03-06T05:22:09;16.00;;;7.23;;
36443;SDS011;24692;45.642;13.806;2024-03-06T05:24:38;18.63;;;7.60;;
36443;SDS011;24692;45.642;13.806;2024-03-06T05:27:05;14.93;;;7.13;;
36443;SDS011;24692;45.642;13.806;2024-03-06T05:29:30;12.20;;;6.13;;
36443;SDS011;24692;45.642;13.806;2024-03-06T05:31:56;12.97;;;6.50;;
36443;SDS011;24692;45.642;13.806;2024-03-06T05:34:22;12.27;;;6.30;;
36443;SDS011;24692;45.642;13.806;2024-03-06T05:36:48;14.33;;;7.00;;
36443;SDS011;24692;45.642;13.806;2024-03-06T05:39:14;14.97;;;5.97;;
36443;SDS011;24692;45.642;13.806;2024-03-06T05:41:40;12.53;;;5.10;;
36443;SDS011;24692;45.642;13.806;2024-03-06T05:44:07;17.10;;;6.17;;
36443;SDS011;24692;45.642;13.806;2024-03-06T05:46:33;17.27;;;5.90;;
36443;SDS011;24692;45.642;13.806;2024-03-06T05:48:59;20.00;;;5.87;;
36443;SDS011;24692;45.642;13.806;2024-03-06T05:51:26;12.07;;;5.30;;
36443;SDS011;24692;45.642;13.806;2024-03-06T05:53:52;12.93;;;5.33;;
36443;SDS011;24692;45.642;13.806;2024-03-06T05:56:18;16.07;;;6.20;;
36443;SDS011;24692;45.642;13.806;2024-03-06T05:58:44;14.80;;;5.70;;
36443;SDS011;24692;45.642;13.806;2024-03-06T06:01:14;17.47;;;5.30;;
36443;SDS011;24692;45.642;13.806;2024-03-06T06:03:43;14.00;;;5.53;;
36443;SDS011;24692;45.642;13.806;2024-03-06T06:06:09;15.00;;;5.47;;
36443;SDS011;24692;45.642;13.806;2024-03-06T06:08:35;9.67;;;5.03;;
36443;SDS011;24692;45.642;13.806;2024-03-06T06:11:01;13.60;;;5.60;;
36443;SDS011;24692;45.642;13.806;2024-03-06T06:13:30;11.33;;;5.60;;
36443;SDS011;24692;45.642;13.806;2024-03-06T06:15:58;11.43;;;4.83;;
36443;SDS011;24692;45.642;13.806;2024-03-06T06:18:27;12.63;;;4.13;;
36443;SDS011;24692;45.642;13.806;2024-03-06T06:20:53;16.50;;;4.83;;
36443;SDS011;24692;45.642;13.806;2024-03-06T06:23:19;11.13;;;5.50;;
36443;SDS011;24692;45.642;13.806;2024-03-06T06:25:45;18.20;;;8.27;;
36443;SDS011;24692;45.642;13.806;2024-03-06T06:28:10;16.10;;;8.37;;
36443;SDS011;24692;45.642;13.806;2024-03-06T06:30:36;16.40;;;9.10;;
36443;SDS011;24692;45.642;13.806;2024-03-06T06:33:03;16.50;;;10.67;;
36443;SDS011;24692;45.642;13.806;2024-03-06T06:35:29;18.43;;;11.40;;
36443;SDS011;24692;45.642;13.806;2024-03-06T06:37:55;21.70;;;12.73;;
36443;SDS011;24692;45.642;13.806;2024-03-06T06:40:21;18.20;;;11.93;;
36443;SDS011;24692;45.642;13.806;2024-03-06T06:42:47;21.53;;;13.43;;
36443;SDS011;24692;45.642;13.806;2024-03-06T06:45:17;20.40;;;13.70;;
36443;SDS011;24692;45.642;13.806;2024-03-06T06:47:43;20.70;;;13.97;;
36443;SDS011;24692;45.642;13.806;2024-03-06T06:50:09;21.43;;;14.00;;
36443;SDS011;24692;45.642;13.806;2024-03-06T06:52:36;19.60;;;13.30;;
36443;SDS011;24692;45.642;13.806;2024-03-06T06:55:05;25.73;;;13.60;;
36443;SDS011;24692;45.642;13.806;2024-03-06T06:57:32;22.17;;;13.33;;
36443;SDS011;24692;45.642;13.806;2024-03-06T06:59:58;21.33;;;14.07;;
36443;SDS011;24692;45.642;13.806;2024-03-06T07:02:25;25.30;;;13.63;;
36443;SDS011;24692;45.642;13.806;2024-03-06T07:04:51;20.23;;;13.90;;
36443;SDS011;24692;45.642;13.806;2024-03-06T07:07:17;18.80;;;13.40;;
36443;SDS011;24692;45.642;13.806;2024-03-06T07:09:45;22.00;;;14.70;;
36443;SDS011;24692;45.642;13.806;2024-03-06T07:12:11;20.77;;;14.23;;
36443;SDS011;24692;45.642;13.806;2024-03-06T07:14:37;26.00;;;13.87;;
36443;SDS011;24692;45.642;13.806;2024-03-06T07:17:02;24.77;;;14.83;;
36443;SDS011;24692;45.642;13.806;2024-03-06T07:19:28;20.23;;;13.30;;
36443;SDS011;24692;45.642;13.806;2024-03-06T07:21:54;21.03;;;13.43;;
36443;SDS011;24692;45.642;13.806;2024-03-06T07:24:20;22.77;;;14.17;;
36443;SDS011;24692;45.642;13.806;2024-03-06T07:26:45;21.80;;;13.77;;
36443;SDS011;24692;45.642;13.806;2024-03-06T07:29:11;21.73;;;13.90;;
36443;SDS011;24692;45.642;13.806;2024-03-06T07:31:40;19.93;;;13.10;;
36443;SDS011;24692;45.642;13.806;2024-03-06T07:34:07;21.57;;;13.57;;
36443;SDS011;24692;45.642;13.806;2024-03-06T07:36:33;22.17;;;14.00;;
36443;SDS011;24692;45.642;13.806;2024-03-06T07:39:02;22.33;;;14.20;;
36443;SDS011;24692;45.642;13.806;2024-03-06T07:41:29;23.77;;;14.57;;
36443;SDS011;24692;45.642;13.806;2024-03-06T07:43:56;21.67;;;13.90;;
36443;SDS011;24692;45.642;13.806;2024-03-06T07:46:21;20.27;;;13.40;;
36443;SDS011;24692;45.642;13.806;2024-03-06T07:48:47;22.03;;;13.47;;
36443;SDS011;24692;45.642;13.806;2024-03-06T07:51:14;23.53;;;13.90;;
36443;SDS011;24692;45.642;13.806;2024-03-06T07:53:39;24.30;;;13.40;;
36443;SDS011;24692;45.642;13.806;2024-03-06T07:56:05;18.33;;;11.13;;
36443;SDS011;24692;45.642;13.806;2024-03-06T07:58:31;17.10;;;9.90;;
36443;SDS011;24692;45.642;13.806;2024-03-06T08:00:58;17.70;;;10.30;;
36443;SDS011;24692;45.642;13.806;2024-03-06T08:03:24;15.40;;;8.60;;
36443;SDS011;24692;45.642;13.806;2024-03-06T08:05:50;15.73;;;9.30;;
36443;SDS011;24692;45.642;13.806;2024-03-06T08:08:20;13.73;;;8.20;;
36443;SDS011;24692;45.642;13.806;2024-03-06T08:10:46;15.50;;;9.23;;
36443;SDS011;24692;45.642;13.806;2024-03-06T08:13:11;12.67;;;8.20;;
36443;SDS011;24692;45.642;13.806;2024-03-06T08:15:37;14.43;;;8.77;;
36443;SDS011;24692;45.642;13.806;2024-03-06T08:18:03;12.00;;;7.97;;
36443;SDS011;24692;45.642;13.806;2024-03-06T08:20:29;17.03;;;8.80;;
36443;SDS011;24692;45.642;13.806;2024-03-06T08:22:55;7.97;;;5.00;;
36443;SDS011;24692;45.642;13.806;2024-03-06T08:25:21;15.50;;;6.80;;
36443;SDS011;24692;45.642;13.806;2024-03-06T08:27:47;9.87;;;6.13;;
36443;SDS011;24692;45.642;13.806;2024-03-06T08:30:13;8.07;;;5.13;;
36443;SDS011;24692;45.642;13.806;2024-03-06T08:32:39;15.77;;;6.70;;
36443;SDS011;24692;45.642;13.806;2024-03-06T08:35:06;14.10;;;6.03;;
36443;SDS011;24692;45.642;13.806;2024-03-06T08:37:40;12.33;;;5.53;;
36443;SDS011;24692;45.642;13.806;2024-03-06T08:40:06;10.70;;;5.20;;
36443;SDS011;24692;45.642;13.806;2024-03-06T08:42:32;15.20;;;5.93;;
36443;SDS011;24692;45.642;13.806;2024-03-06T08:44:58;9.27;;;3.87;;
36443;SDS011;24692;45.642;13.806;2024-03-06T08:47:24;6.67;;;3.93;;
36443;SDS011;24692;45.642;13.806;2024-03-06T08:49:49;16.33;;;4.87;;
36443;SDS011;24692;45.642;13.806;2024-03-06T08:52:15;8.33;;;3.47;;
36443;SDS011;24692;45.642;13.806;2024-03-06T08:54:41;12.47;;;4.47;;
36443;SDS011;24692;45.642;13.806;2024-03-06T08:57:07;4.23;;;3.10;;
36443;SDS011;24692;45.642;13.806;2024-03-06T08:59:33;9.20;;;4.60;;
36443;SDS011;24692;45.642;13.806;2024-03-06T09:02:11;8.40;;;2.90;;
36443;SDS011;24692;45.642;13.806;2024-03-06T09:04:43;7.97;;;3.30;;
36443;SDS011;24692;45.642;13.806;2024-03-06T09:07:09;6.87;;;4.03;;
36443;SDS011;24692;45.642;13.806;2024-03-06T09:09:35;8.33;;;3.60;;
36443;SDS011;24692;45.642;13.806;2024-03-06T09:12:05;9.83;;;3.37;;
36443;SDS011;24692;45.642;13.806;2024-03-06T09:14:34;5.30;;;3.50;;
36443;SDS011;24692;45.642;13.806;2024-03-06T09:17:00;13.83;;;5.07;;
36443;SDS011;24692;45.642;13.806;2024-03-06T09:19:26;6.90;;;3.80;;
36443;SDS011;24692;45.642;13.806;2024-03-06T09:21:52;16.33;;;5.50;;
36443;SDS011;24692;45.642;13.806;2024-03-06T09:24:18;6.10;;;2.40;;
36443;SDS011;24692;45.642;13.806;2024-03-06T09:26:45;13.47;;;4.03;;
36443;SDS011;24692;45.642;13.806;2024-03-06T09:29:11;10.10;;;3.63;;
36443;SDS011;24692;45.642;13.806;2024-03-06T09:31:36;13.10;;;4.13;;
36443;SDS011;24692;45.642;13.806;2024-03-06T09:34:02;7.00;;;3.07;;
36443;SDS011;24692;45.642;13.806;2024-03-06T09:36:28;16.87;;;4.50;;
36443;SDS011;24692;45.642;13.806;2024-03-06T09:38:53;5.97;;;2.40;;
36443;SDS011;24692;45.642;13.806;2024-03-06T09:41:20;6.53;;;3.37;;
36443;SDS011;24692;45.642;13.806;2024-03-06T09:43:47;6.13;;;2.77;;
36443;SDS011;24692;45.642;13.806;2024-03-06T09:46:13;3.23;;;1.77;;
36443;SDS011;24692;45.642;13.806;2024-03-06T09:48:57;3.70;;;1.80;;
36443;SDS011;24692;45.642;13.806;2024-03-06T09:51:24;2.73;;;2.17;;
36443;SDS011;24692;45.642;13.806;2024-03-06T09:53:49;5.33;;;2.37;;
36443;SDS011;24692;45.642;13.806;2024-03-06T09:56:16;1.87;;;1.53;;
36443;SDS011;24692;45.642;13.806;2024-03-06T09:58:44;5.60;;;1.87;;
36443;SDS011;24692;45.642;13.806;2024-03-06T10:01:10;6.17;;;2.23;;
36443;SDS011;24692;45.642;13.806;2024-03-06T10:03:38;8.03;;;2.20;;
36443;SDS011;24692;45.642;13.806;2024-03-06T10:06:05;4.07;;;2.40;;
36443;SDS011;24692;45.642;13.806;2024-03-06T10:08:32;6.50;;;2.20;;
36443;SDS011;24692;45.642;13.806;2024-03-06T10:10:58;2.67;;;1.80;;
36443;SDS011;24692;45.642;13.806;2024-03-06T10:13:25;6.67;;;2.63;;
36443;SDS011;24692;45.642;13.806;2024-03-06T10:15:57;4.13;;;2.17;;
36443;SDS011;24692;45.642;13.806;2024-03-06T10:18:26;3.80;;;2.20;;
36443;SDS011;24692;45.642;13.806;2024-03-06T10:20:53;2.37;;;1.73;;
36443;SDS011;24692;45.642;13.806;2024-03-06T10:23:19;8.37;;;2.50;;
36443;SDS011;24692;45.642;13.806;2024-03-06T10:25:46;5.37;;;2.10;;
36443;SDS011;24692;45.642;13.806;2024-03-06T10:28:18;4.03;;;2.03;;
36443;SDS011;24692;45.642;13.806;2024-03-06T10:30:45;3.80;;;2.00;;
36443;SDS011;24692;45.642;13.806;2024-03-06T10:33:12;4.17;;;2.53;;
36443;SDS011;24692;45.642;13.806;2024-03-06T10:35:42;3.67;;;2.10;;
36443;SDS011;24692;45.642;13.806;2024-03-06T10:38:13;3.93;;;2.10;;
36443;SDS011;24692;45.642;13.806;2024-03-06T10:40:42;9.50;;;2.33;;
36443;SDS011;24692;45.642;13.806;2024-03-06T10:43:09;5.67;;;2.20;;
36443;SDS011;24692;45.642;13.806;2024-03-06T10:48:06;9.07;;;3.00;;
36443;SDS011;24692;45.642;13.806;2024-03-06T10:50:33;16.73;;;3.60;;
36443;SDS011;24692;45.642;13.806;2024-03-06T10:53:01;13.97;;;3.00;;
36443;SDS011;24692;45.642;13.806;2024-03-06T10:55:29;11.82;;;2.58;;
36443;SDS011;24692;45.642;13.806;2024-03-06T10:57:59;4.85;;;2.30;;
36443;SDS011;24692;45.642;13.806;2024-03-06T11:00:25;5.17;;;2.50;;
36443;SDS011;24692;45.642;13.806;2024-03-06T11:02:54;7.40;;;2.90;;
36443;SDS011;24692;45.642;13.806;2024-03-06T11:05:21;15.20;;;3.20;;
36443;SDS011;24692;45.642;13.806;2024-03-06T11:07:46;7.53;;;2.47;;
36443;SDS011;24692;45.642;13.806;2024-03-06T11:10:12;4.03;;;2.10;;
36443;SDS011;24692;45.642;13.806;2024-03-06T11:12:41;7.83;;;2.20;;
36443;SDS011;24692;45.642;13.806;2024-03-06T11:17:38;6.60;;;2.27;;
36443;SDS011;24692;45.642;13.806;2024-03-06T11:28:20;5.00;;;2.47;;
36443;SDS011;24692;45.642;13.806;2024-03-06T11:33:26;3.35;;;2.00;;
36443;SDS011;24692;45.642;13.806;2024-03-06T11:36:16;4.20;;;2.17;;
36443;SDS011;24692;45.642;13.806;2024-03-06T11:38:52;12.13;;;2.97;;
36443;SDS011;24692;45.642;13.806;2024-03-06T11:44:00;7.27;;;2.20;;
36443;SDS011;24692;45.642;13.806;2024-03-06T11:46:45;3.38;;;1.70;;
36443;SDS011;24692;45.642;13.806;2024-03-06T11:49:22;7.38;;;2.85;;
36443;SDS011;24692;45.642;13.806;2024-03-06T11:51:54;3.67;;;2.08;;
36443;SDS011;24692;45.642;13.806;2024-03-06T11:54:20;6.28;;;2.30;;
36443;SDS011;24692;45.642;13.806;2024-03-06T11:56:51;2.88;;;1.95;;
36443;SDS011;24692;45.642;13.806;2024-03-06T11:59:20;5.50;;;2.30;;
36443;SDS011;24692;45.642;13.806;2024-03-06T12:01:53;2.83;;;1.80;;
36443;SDS011;24692;45.642;13.806;2024-03-06T12:04:23;5.95;;;2.20;;
36443;SDS011;24692;45.642;13.806;2024-03-06T12:06:49;12.07;;;2.58;;
36443;SDS011;24692;45.642;13.806;2024-03-06T12:09:15;7.53;;;2.43;;
36443;SDS011;24692;45.642;13.806;2024-03-06T12:11:42;11.60;;;2.40;;
36443;SDS011;24692;45.642;13.806;2024-03-06T12:14:13;19.63;;;3.00;;
36443;SDS011;24692;45.642;13.806;2024-03-06T12:16:39;15.13;;;2.00;;
36443;SDS011;24692;45.642;13.806;2024-03-06T12:19:05;10.97;;;2.40;;
36443;SDS011;24692;45.642;13.806;2024-03-06T12:21:31;10.13;;;2.38;;
36443;SDS011;24692;45.642;13.806;2024-03-06T12:24:07;11.63;;;2.63;;
36443;SDS011;24692;45.642;13.806;2024-03-06T12:26:34;5.82;;;1.98;;
36443;SDS011;24692;45.642;13.806;2024-03-06T12:29:08;5.47;;;2.10;;
36443;SDS011;24692;45.642;13.806;2024-03-06T12:31:35;4.57;;;2.03;;
36443;SDS011;24692;45.642;13.806;2024-03-06T12:34:02;4.93;;;1.80;;
36443;SDS011;24692;45.642;13.806;2024-03-06T12:36:31;4.53;;;1.50;;
36443;SDS011;24692;45.642;13.806;2024-03-06T12:38:58;3.67;;;1.55;;
36443;SDS011;24692;45.642;13.806;2024-03-06T12:41:26;10.00;;;2.07;;
36443;SDS011;24692;45.642;13.806;2024-03-06T12:43:55;3.90;;;1.40;;
36443;SDS011;24692;45.642;13.806;2024-03-06T12:46:22;9.00;;;1.90;;
36443;SDS011;24692;45.642;13.806;2024-03-06T12:48:48;6.60;;;2.10;;
36443;SDS011;24692;45.642;13.806;2024-03-06T12:51:15;5.33;;;1.63;;
36443;SDS011;24692;45.642;13.806;2024-03-06T12:53:42;5.03;;;1.67;;
36443;SDS011;24692;45.642;13.806;2024-03-06T12:56:08;2.40;;;1.83;;
36443;SDS011;24692;45.642;13.806;2024-03-06T12:58:34;5.67;;;1.47;;
36443;SDS011;24692;45.642;13.806;2024-03-06T13:01:01;4.90;;;1.70;;
36443;SDS011;24692;45.642;13.806;2024-03-06T13:03:27;1.53;;;1.20;;
36443;SDS011;24692;45.642;13.806;2024-03-06T13:05:53;5.53;;;1.60;;
36443;SDS011;24692;45.642;13.806;2024-03-06T13:08:20;1.37;;;1.10;;
36443;SDS011;24692;45.642;13.806;2024-03-06T13:10:46;8.57;;;1.93;;
36443;SDS011;24692;45.642;13.806;2024-03-06T13:13:12;6.07;;;1.80;;
36443;SDS011;24692;45.642;13.806;2024-03-06T13:15:37;4.00;;;1.80;;
36443;SDS011;24692;45.642;13.806;2024-03-06T13:18:03;2.37;;;1.60;;
36443;SDS011;24692;45.642;13.806;2024-03-06T13:20:30;3.13;;;1.13;;
36443;SDS011;24692;45.642;13.806;2024-03-06T13:22:56;5.27;;;1.70;;
36443;SDS011;24692;45.642;13.806;2024-03-06T13:25:21;7.97;;;2.00;;
36443;SDS011;24692;45.642;13.806;2024-03-06T13:27:47;4.40;;;1.30;;
36443;SDS011;24692;45.642;13.806;2024-03-06T13:30:14;3.20;;;1.10;;
36443;SDS011;24692;45.642;13.806;2024-03-06T13:32:41;4.17;;;1.30;;
36443;SDS011;24692;45.642;13.806;2024-03-06T13:35:15;3.07;;;1.23;;
36443;SDS011;24692;45.642;13.806;2024-03-06T13:37:44;3.43;;;1.47;;
36443;SDS011;24692;45.642;13.806;2024-03-06T13:40:16;3.13;;;1.30;;
36443;SDS011;24692;45.642;13.806;2024-03-06T13:42:47;2.03;;;1.03;;
36443;SDS011;24692;45.642;13.806;2024-03-06T13:45:16;2.70;;;1.30;;
36443;SDS011;24692;45.642;13.806;2024-03-06T13:47:44;1.40;;;1.10;;
36443;SDS011;24692;45.642;13.806;2024-03-06T13:50:11;1.87;;;1.40;;
36443;SDS011;24692;45.642;13.806;2024-03-06T13:52:39;1.80;;;1.20;;
36443;SDS011;24692;45.642;13.806;2024-03-06T13:55:08;5.00;;;1.27;;
36443;SDS011;24692;45.642;13.806;2024-03-06T13:57:36;0.80;;;0.80;;
36443;SDS011;24692;45.642;13.806;2024-03-06T14:00:06;1.63;;;1.00;;
36443;SDS011;24692;45.642;13.806;2024-03-06T14:02:42;1.67;;;1.20;;
36443;SDS011;24692;45.642;13.806;2024-03-06T14:05:13;2.83;;;1.20;;
36443;SDS011;24692;45.642;13.806;2024-03-06T14:07:54;1.00;;;0.80;;
36443;SDS011;24692;45.642;13.806;2024-03-06T14:10:21;1.47;;;1.20;;
36443;SDS011;24692;45.642;13.806;2024-03-06T14:12:49;2.87;;;1.30;;
36443;SDS011;24692;45.642;13.806;2024-03-06T14:15:18;1.80;;;1.30;;
36443;SDS011;24692;45.642;13.806;2024-03-06T14:17:44;3.30;;;1.20;;
36443;SDS011;24692;45.642;13.806;2024-03-06T14:20:16;6.90;;;1.63;;
36443;SDS011;24692;45.642;13.806;2024-03-06T14:22:42;5.80;;;1.20;;
36443;SDS011;24692;45.642;13.806;2024-03-06T14:25:10;2.53;;;1.10;;
36443;SDS011;24692;45.642;13.806;2024-03-06T14:27:37;2.20;;;0.87;;
36443;SDS011;24692;45.642;13.806;2024-03-06T14:30:04;2.47;;;1.07;;
36443;SDS011;24692;45.642;13.806;2024-03-06T14:32:34;3.13;;;1.33;;
36443;SDS011;24692;45.642;13.806;2024-03-06T14:35:01;1.83;;;1.30;;
36443;SDS011;24692;45.642;13.806;2024-03-06T14:37:28;1.90;;;1.20;;
36443;SDS011;24692;45.642;13.806;2024-03-06T14:39:55;1.20;;;0.87;;